MSC Ines — 3EFZ3 — position and weather

sailwx.info

Track history (hours):
 
Tides and Currents Weather Stations Pressure Air Temp Water Temp Dewpoint Dewpoint Depression Visibility Wind Speed Wind Dir Waves Ship Positions

MSC Ines

Last reported at 2016-Sep-23 02:34 UTC. Time now 2016-Sep-28 08:40 UTC.
Position S 20°32' E 056°57'.

Length 349 m; draft 13.4 m.

Type: Ship (hazmat cat A). MMSI: 356112000.

Date/timePositionNaut miles runAvg speedWind from/ knotsBaromVisibWave heightAir tempDewpointWater temp
2016-Sep-23 02:34S 20°32' E 056°57'10 9.4
2016-Sep-23 01:32S 20°25' E 057°04'9 9.6
2016-Sep-23 00:34S 20°19' E 057°11'10 9.7
2016-Sep-22 23:33S 20°12' E 057°19'11 1.0
2016-Sep-22 12:30S 20°09' E 057°29'0 0.0
2016-Sep-22 04:33S 20°09' E 057°29'0 0.0
2016-Sep-22 03:33S 20°09' E 057°29'6 2.0
2016-Sep-22 00:33S 20°03' E 057°26'1212.4
2016-Sep-21 23:34S 19°51' E 057°28'1716.9
2016-Sep-21 22:34S 19°38' E 057°40'  
2016-Sep-13 16:14N 02°09' E 102°01'11613.3
2016-Sep-13 07:33N 01°16' E 103°44'2 1.6
2016-Sep-13 06:11N 01°16' E 103°46'0 0.0
2016-Sep-13 04:29N 01°16' E 103°46'  
Track history (hours):
 
Tides and Currents Weather Stations Pressure Air Temp Water Temp Dewpoint Dewpoint Depression Visibility Wind Speed Wind Dir Waves Ship Positions

MSC Ines

Last reported at 2016-Sep-23 02:34 UTC. Time now 2016-Sep-28 08:40 UTC.
Position S 20°32' E 056°57'.

Length 349 m; draft 13.4 m.

Type: Ship (hazmat cat A). MMSI: 356112000.

Date/timePositionNaut miles runAvg speedWind from/ knotsBaromVisibWave heightAir tempDewpointWater temp
2016-Sep-23 02:34S 20°32' E 056°57'10 9.4
2016-Sep-23 01:32S 20°25' E 057°04'9 9.6
2016-Sep-23 00:34S 20°19' E 057°11'10 9.7
2016-Sep-22 23:33S 20°12' E 057°19'11 1.0
2016-Sep-22 12:30S 20°09' E 057°29'0 0.0
2016-Sep-22 04:33S 20°09' E 057°29'0 0.0
2016-Sep-22 03:33S 20°09' E 057°29'6 2.0
2016-Sep-22 00:33S 20°03' E 057°26'1212.4
2016-Sep-21 23:34S 19°51' E 057°28'1716.9
2016-Sep-21 22:34S 19°38' E 057°40'  
2016-Sep-13 16:14N 02°09' E 102°01'11613.3
2016-Sep-13 07:33N 01°16' E 103°44'2 1.6
2016-Sep-13 06:11N 01°16' E 103°46'0 0.0
2016-Sep-13 04:29N 01°16' E 103°46'  

Dump ship's entire track history